createdAt,value
2023-09-19T00:00:16.494Z,95.93
2023-09-19T00:02:48.049Z,95.34
2023-09-19T00:05:19.899Z,95.77
2023-09-19T00:07:51.429Z,95.84
2023-09-19T00:10:23.370Z,95.90
2023-09-19T00:12:54.903Z,95.88
2023-09-19T00:15:26.779Z,95.80
2023-09-19T00:17:58.288Z,95.98
2023-09-19T00:20:30.120Z,96.03
2023-09-19T00:23:01.655Z,96.10
2023-09-19T00:25:33.847Z,96.07
2023-09-19T00:28:05.496Z,96.00
2023-09-19T00:30:37.355Z,96.17
2023-09-19T00:33:09.081Z,96.44
2023-09-19T00:35:40.588Z,96.13
2023-09-19T00:38:12.114Z,96.59
2023-09-19T00:40:43.651Z,96.35
2023-09-19T00:43:15.582Z,96.35
2023-09-19T00:45:47.139Z,96.38
2023-09-19T00:48:18.697Z,96.50
2023-09-19T00:50:50.327Z,96.73
2023-09-19T00:53:22.166Z,96.30
2023-09-19T00:55:53.702Z,96.68
2023-09-19T00:58:25.723Z,96.67
2023-09-19T01:00:57.315Z,96.64
2023-09-19T01:03:29.352Z,96.84
2023-09-19T01:06:00.955Z,96.77
2023-09-19T01:08:32.770Z,96.94
2023-09-19T01:11:04.680Z,97.00
2023-09-19T01:13:36.272Z,96.67
2023-09-19T01:16:08.274Z,96.63
2023-09-19T01:18:39.906Z,96.33
2023-09-19T01:21:11.763Z,96.85
2023-09-19T01:23:43.286Z,96.31
2023-09-19T01:26:15.193Z,96.28
2023-09-19T01:28:46.761Z,96.61
2023-09-19T01:31:18.734Z,96.53
2023-09-19T01:33:50.285Z,96.20
2023-09-19T01:36:22.156Z,96.24
2023-09-19T01:38:53.954Z,96.10
2023-09-19T01:41:25.462Z,95.68
2023-09-19T01:43:57.285Z,95.94
2023-09-19T01:46:28.892Z,95.66
2023-09-19T01:49:00.878Z,96.10
2023-09-19T01:51:32.404Z,95.70
2023-09-19T01:54:04.249Z,95.61
2023-09-19T01:56:35.738Z,95.70
2023-09-19T01:59:07.568Z,95.80
2023-09-19T02:01:39.434Z,96.12
2023-09-19T02:04:11.451Z,95.99
2023-09-19T02:06:43.016Z,95.93
2023-09-19T02:09:14.824Z,96.36
2023-09-19T02:11:46.320Z,96.75
2023-09-19T02:14:17.832Z,96.65
2023-09-19T02:16:49.411Z,97.00
2023-09-19T02:19:20.962Z,96.83
2023-09-19T02:21:52.551Z,97.55
2023-09-19T02:24:24.058Z,97.51
2023-09-19T02:26:55.915Z,97.33
2023-09-19T02:29:27.396Z,97.88
2023-09-19T02:31:59.492Z,98.11
2023-09-19T02:34:31.085Z,97.93
2023-09-19T02:37:02.859Z,97.79
2023-09-19T02:39:34.647Z,97.39
2023-09-19T02:42:06.184Z,98.07
2023-09-19T02:44:37.992Z,97.79
2023-09-19T02:47:09.551Z,96.96
2023-09-19T02:49:41.445Z,97.54
2023-09-19T02:52:13.006Z,96.78
2023-09-19T02:54:44.519Z,96.13
2023-09-19T02:57:16.040Z,95.63
2023-09-19T02:59:47.545Z,95.16
2023-09-19T03:02:19.104Z,94.63
2023-09-19T03:04:50.785Z,94.23
2023-09-19T03:07:22.699Z,94.14
2023-09-19T03:09:54.590Z,93.91
2023-09-19T03:12:26.134Z,93.26
2023-09-19T03:14:57.622Z,92.41
2023-09-19T03:17:29.559Z,91.64
2023-09-19T03:20:01.293Z,91.20
2023-09-19T03:22:33.162Z,90.68
2023-09-19T03:25:04.724Z,90.57
2023-09-19T03:27:36.259Z,90.93
2023-09-19T03:30:07.776Z,91.00
2023-09-19T03:32:39.302Z,90.78
2023-09-19T03:35:10.808Z,91.05
2023-09-19T03:37:42.382Z,90.43
2023-09-19T03:40:14.255Z,90.30
2023-09-19T03:42:45.790Z,90.54
2023-09-19T03:45:17.568Z,90.76
2023-09-19T03:47:49.460Z,90.65
2023-09-19T03:50:20.968Z,88.63
2023-09-19T03:52:52.847Z,87.90
2023-09-19T03:55:24.396Z,87.92
2023-09-19T03:57:56.264Z,87.12
2023-09-19T04:00:27.791Z,86.95
2023-09-19T04:02:59.611Z,86.70
2023-09-19T04:05:31.159Z,86.92
2023-09-19T04:08:03.056Z,86.88
2023-09-19T04:10:34.608Z,86.90
2023-09-19T04:13:06.443Z,87.23
2023-09-19T04:15:37.942Z,87.39
2023-09-19T04:18:09.976Z,87.35
2023-09-19T04:20:41.487Z,87.62
2023-09-19T04:23:14.801Z,87.85
2023-09-19T04:25:46.373Z,88.84
2023-09-19T04:28:18.294Z,88.84
2023-09-19T04:30:49.896Z,89.19
2023-09-19T04:33:21.436Z,89.18
2023-09-19T04:35:53.290Z,89.16
2023-09-19T04:38:24.795Z,88.98
2023-09-19T04:40:56.813Z,88.97
2023-09-19T04:43:28.327Z,89.09
2023-09-19T04:45:59.910Z,89.13
2023-09-19T04:48:31.432Z,88.26
2023-09-19T04:51:03.270Z,87.85
2023-09-19T04:53:35.143Z,87.43
2023-09-19T04:56:06.776Z,86.86
2023-09-19T04:58:38.688Z,86.22
2023-09-19T05:01:10.232Z,86.15
2023-09-19T05:03:42.326Z,85.01
2023-09-19T05:06:13.889Z,84.75
2023-09-19T05:08:45.404Z,84.96
2023-09-19T05:11:16.898Z,84.49
2023-09-19T05:13:48.498Z,84.24
2023-09-19T05:16:20.085Z,83.65
2023-09-19T05:18:52.030Z,83.38
2023-09-19T05:21:23.549Z,83.30
2023-09-19T05:23:55.396Z,83.45
2023-09-19T05:26:26.900Z,82.89
2023-09-19T05:28:58.457Z,82.38
2023-09-19T05:31:30.052Z,81.91
2023-09-19T05:34:01.992Z,81.89
2023-09-19T05:36:33.836Z,81.63
2023-09-19T05:39:05.699Z,81.57
2023-09-19T05:41:37.587Z,81.58
2023-09-19T05:44:09.178Z,81.25
2023-09-19T05:46:41.227Z,81.09
2023-09-19T05:49:12.886Z,80.86
2023-09-19T05:51:44.403Z,80.57
2023-09-19T05:54:15.918Z,81.09
2023-09-19T05:56:47.506Z,79.97
2023-09-19T05:59:19.011Z,80.00
2023-09-19T06:01:50.593Z,79.46
2023-09-19T06:04:22.262Z,79.06
2023-09-19T06:06:53.845Z,78.97
2023-09-19T06:09:25.865Z,78.46
2023-09-19T06:11:57.706Z,78.04
2023-09-19T06:14:29.224Z,77.25
2023-09-19T06:17:00.737Z,77.33
2023-09-19T06:19:32.487Z,76.86
2023-09-19T06:22:04.010Z,76.71
2023-09-19T06:24:35.545Z,76.24
2023-09-19T06:27:07.069Z,75.95
2023-09-19T06:29:38.649Z,75.45
2023-09-19T06:32:10.327Z,75.10
2023-09-19T06:34:41.943Z,74.99
2023-09-19T06:37:13.488Z,73.71
2023-09-19T06:39:45.227Z,73.64
2023-09-19T06:42:16.996Z,71.97
2023-09-19T06:44:48.786Z,71.11
2023-09-19T06:47:20.647Z,70.68
2023-09-19T06:49:52.214Z,71.00
2023-09-19T06:52:23.929Z,70.15
2023-09-19T06:54:55.450Z,69.88
2023-09-19T06:57:27.169Z,69.01
2023-09-19T06:59:58.710Z,67.17
2023-09-19T07:02:30.259Z,66.42
2023-09-19T07:05:01.878Z,63.97
2023-09-19T07:07:33.854Z,62.70
2023-09-19T07:10:05.597Z,61.17
2023-09-19T07:12:37.469Z,60.26
2023-09-19T07:15:09.292Z,60.59
2023-09-19T07:17:40.828Z,59.14
2023-09-19T07:20:12.528Z,58.30
2023-09-19T07:22:44.182Z,57.17
2023-09-19T07:25:15.925Z,56.91
2023-09-19T07:27:47.520Z,57.74
2023-09-19T07:30:19.124Z,55.78
2023-09-19T07:32:50.678Z,56.22
2023-09-19T07:35:22.220Z,55.56
2023-09-19T07:37:54.368Z,53.68
2023-09-19T07:40:26.307Z,53.57
2023-09-19T07:42:58.103Z,53.60
2023-09-19T07:45:29.610Z,54.07
2023-09-19T07:48:01.455Z,53.91
2023-09-19T07:50:33.034Z,55.06
2023-09-19T07:53:04.838Z,53.54
2023-09-19T07:55:36.426Z,52.89
2023-09-19T07:58:08.241Z,51.84
2023-09-19T08:00:39.770Z,51.58
2023-09-19T08:03:16.566Z,52.45
2023-09-19T08:05:48.655Z,52.61
2023-09-19T08:08:20.498Z,52.97
2023-09-19T08:10:52.366Z,54.00
2023-09-19T08:13:23.956Z,52.70
2023-09-19T08:15:55.979Z,50.40
2023-09-19T08:18:27.574Z,51.72
2023-09-19T08:20:59.234Z,52.00
2023-09-19T08:23:30.756Z,52.05
2023-09-19T08:26:02.337Z,52.80
2023-09-19T08:28:34.139Z,53.26
2023-09-19T08:31:06.129Z,54.10
2023-09-19T08:33:37.976Z,53.86
2023-09-19T08:36:10.139Z,54.25
2023-09-19T08:38:42.040Z,53.35
2023-09-19T08:41:13.863Z,53.55
2023-09-19T08:43:45.432Z,53.36
2023-09-19T08:46:17.137Z,53.04
2023-09-19T08:48:48.715Z,51.31
2023-09-19T08:51:23.020Z,50.53
2023-09-19T08:53:54.910Z,49.57
2023-09-19T08:56:26.407Z,49.59
2023-09-19T08:58:58.361Z,50.33
2023-09-19T09:01:30.184Z,49.39
2023-09-19T09:04:01.857Z,49.89
2023-09-19T09:06:33.668Z,50.51
2023-09-19T09:09:05.466Z,48.84
2023-09-19T09:11:37.131Z,48.48
2023-09-19T09:14:08.693Z,48.10
2023-09-19T09:16:40.391Z,47.47
2023-09-19T09:19:11.998Z,47.86
2023-09-19T09:21:43.510Z,47.61
2023-09-19T09:24:15.084Z,47.25
2023-09-19T09:26:46.619Z,46.43
2023-09-19T09:29:21.414Z,44.62
2023-09-19T09:31:53.502Z,45.00
2023-09-19T09:34:25.435Z,43.61
2023-09-19T09:36:56.963Z,43.37
2023-09-19T09:39:28.922Z,43.81
2023-09-19T09:42:00.476Z,41.17
2023-09-19T09:44:32.389Z,41.64
2023-09-19T09:47:04.022Z,42.16
2023-09-19T09:49:35.914Z,41.54
2023-09-19T09:52:10.785Z,40.61
2023-09-19T09:54:43.952Z,40.08
2023-09-19T09:57:15.748Z,41.53
2023-09-19T09:59:47.558Z,40.26
2023-09-19T10:02:19.189Z,40.22
2023-09-19T10:04:50.948Z,39.83
2023-09-19T10:07:22.899Z,39.27
2023-09-19T10:09:54.415Z,39.33
2023-09-19T10:12:25.929Z,39.15
2023-09-19T10:14:57.418Z,38.44
2023-09-19T10:17:29.529Z,37.78
2023-09-19T10:20:01.161Z,38.80
2023-09-19T10:22:33.025Z,38.21
2023-09-19T10:25:04.552Z,38.50
2023-09-19T10:27:36.077Z,36.13
2023-09-19T10:30:07.578Z,36.44
2023-09-19T10:32:39.373Z,36.44
2023-09-19T10:35:11.019Z,36.76
2023-09-19T10:37:42.942Z,37.41
2023-09-19T10:40:14.751Z,36.56
2023-09-19T10:42:46.260Z,35.84
2023-09-19T10:45:18.180Z,36.18
2023-09-19T10:47:49.775Z,36.31
2023-09-19T10:50:21.798Z,37.20
2023-09-19T10:52:53.458Z,37.56
2023-09-19T10:55:25.006Z,37.35
2023-09-19T10:57:56.546Z,36.00
2023-09-19T11:00:28.053Z,36.26
2023-09-19T11:02:59.674Z,36.52
2023-09-19T11:05:31.662Z,36.36
2023-09-19T11:08:03.214Z,36.22
2023-09-19T11:10:34.810Z,37.18
2023-09-19T11:13:06.683Z,37.13
2023-09-19T11:15:38.229Z,37.84
2023-09-19T11:18:10.123Z,37.98
2023-09-19T11:20:41.673Z,36.69
2023-09-19T11:23:13.564Z,36.36
2023-09-19T11:25:45.179Z,37.48
2023-09-19T11:28:16.998Z,37.29
2023-09-19T11:30:48.490Z,37.01
2023-09-19T11:33:20.177Z,36.80
2023-09-19T11:35:51.730Z,36.35
2023-09-19T11:38:23.597Z,36.16
2023-09-19T11:40:55.297Z,35.73
2023-09-19T11:43:27.288Z,36.80
2023-09-19T11:45:59.234Z,36.49
2023-09-19T11:48:30.882Z,37.59
2023-09-19T11:53:34.269Z,37.42
2023-09-19T11:56:05.794Z,36.86
2023-09-19T11:58:37.377Z,36.95
2023-09-19T12:01:09.466Z,36.47
2023-09-19T12:03:41.021Z,35.57
2023-09-19T12:06:12.525Z,36.25
2023-09-19T12:08:44.162Z,36.26
2023-09-19T12:11:15.699Z,36.08
2023-09-19T12:13:47.264Z,35.76
2023-09-19T12:16:18.831Z,36.07
2023-09-19T12:18:50.446Z,36.72
2023-09-19T12:21:21.941Z,35.95
2023-09-19T12:23:53.869Z,36.05
2023-09-19T12:26:25.405Z,36.38
2023-09-19T12:28:57.304Z,36.68
2023-09-19T12:31:28.879Z,37.31
2023-09-19T12:34:00.761Z,36.80
2023-09-19T12:36:32.372Z,36.78
2023-09-19T12:39:04.383Z,36.44
2023-09-19T12:41:35.891Z,36.00
2023-09-19T12:44:07.466Z,36.27
2023-09-19T12:46:39.085Z,36.14
2023-09-19T12:49:10.631Z,36.88
2023-09-19T12:51:42.490Z,36.01
2023-09-19T12:54:13.987Z,36.10
2023-09-19T12:56:45.484Z,35.72
2023-09-19T12:59:17.083Z,35.61
2023-09-19T13:01:48.743Z,36.17
2023-09-19T13:04:20.560Z,35.61
2023-09-19T13:06:52.611Z,35.64
2023-09-19T13:09:24.737Z,36.11
2023-09-19T13:11:56.526Z,36.41
2023-09-19T13:14:28.078Z,36.56
2023-09-19T13:16:59.771Z,36.11
2023-09-19T13:19:31.347Z,35.90
2023-09-19T13:22:02.856Z,36.57
2023-09-19T13:24:34.663Z,36.32
2023-09-19T13:27:06.200Z,36.37
2023-09-19T13:29:38.037Z,36.62
2023-09-19T13:32:09.717Z,36.19
2023-09-19T13:34:41.323Z,36.84
2023-09-19T13:37:12.893Z,37.35
2023-09-19T13:39:44.414Z,36.97
2023-09-19T13:42:15.924Z,36.82
2023-09-19T13:44:47.463Z,36.16
2023-09-19T13:47:19.022Z,35.64
2023-09-19T13:49:50.626Z,35.58
2023-09-19T13:52:22.347Z,36.19
2023-09-19T13:54:53.842Z,35.80
2023-09-19T13:57:25.860Z,35.68
2023-09-19T13:59:57.363Z,35.78
2023-09-19T14:02:29.109Z,36.33
2023-09-19T14:05:00.733Z,36.25
2023-09-19T14:07:32.652Z,36.19
2023-09-19T14:10:04.188Z,36.34
2023-09-19T14:12:35.988Z,37.06
2023-09-19T14:15:07.484Z,37.07
2023-09-19T14:17:39.534Z,37.69
2023-09-19T14:20:11.660Z,38.12
2023-09-19T14:22:43.465Z,38.28
2023-09-19T14:25:15.032Z,38.46
2023-09-19T14:27:46.537Z,38.30
2023-09-19T14:30:18.075Z,38.10
2023-09-19T14:32:49.643Z,37.69
2023-09-19T14:35:21.652Z,37.70
2023-09-19T14:37:53.223Z,37.71
2023-09-19T14:40:25.266Z,37.38
2023-09-19T14:42:56.776Z,37.17
2023-09-19T14:45:28.773Z,37.08
2023-09-19T14:48:00.407Z,37.52
2023-09-19T14:50:32.363Z,37.82
2023-09-19T14:53:03.935Z,37.91
2023-09-19T14:55:35.487Z,37.55
2023-09-19T14:58:07.411Z,37.43
2023-09-19T15:00:38.989Z,37.60
2023-09-19T15:03:10.951Z,37.56
2023-09-19T15:05:42.706Z,37.57
2023-09-19T15:08:14.637Z,37.37
2023-09-19T15:10:46.159Z,37.60
2023-09-19T15:13:17.763Z,37.53
2023-09-19T15:15:49.333Z,38.13
2023-09-19T15:18:20.996Z,38.03
2023-09-19T15:20:52.978Z,38.41
2023-09-19T15:23:32.629Z,38.77
2023-09-19T15:26:04.502Z,38.78
2023-09-19T15:28:36.055Z,39.38
2023-09-19T15:31:07.690Z,38.84
2023-09-19T15:33:39.210Z,39.80
2023-09-19T15:36:11.183Z,39.56
2023-09-19T15:38:42.687Z,39.96
2023-09-19T15:41:14.372Z,40.61
2023-09-19T15:43:45.935Z,40.43
2023-09-19T15:46:17.852Z,41.22
2023-09-19T15:48:49.423Z,41.13
2023-09-19T15:51:21.417Z,41.23
2023-09-19T15:53:53.218Z,41.07
2023-09-19T15:56:24.713Z,41.50
2023-09-19T15:58:56.546Z,42.24
2023-09-19T16:01:28.313Z,41.64
2023-09-19T16:04:00.191Z,42.08
2023-09-19T16:06:31.759Z,42.05
2023-09-19T16:09:03.602Z,42.07
2023-09-19T16:11:35.091Z,41.65
2023-09-19T16:14:07.048Z,41.48
2023-09-19T16:16:38.754Z,41.46
2023-09-19T16:19:10.340Z,42.01
2023-09-19T16:21:42.103Z,42.52
2023-09-19T16:24:14.021Z,42.43
2023-09-19T16:26:45.526Z,42.26
2023-09-19T16:29:17.268Z,42.21
2023-09-19T16:31:48.855Z,42.32
2023-09-19T16:34:20.401Z,42.49
2023-09-19T16:36:51.925Z,42.74
2023-09-19T16:39:23.635Z,43.00
2023-09-19T16:41:55.436Z,43.06
2023-09-19T16:44:27.185Z,43.33
2023-09-19T16:46:59.027Z,43.36
2023-09-19T16:49:30.560Z,43.66
2023-09-19T16:52:02.429Z,43.78
2023-09-19T16:54:33.930Z,43.75
2023-09-19T16:57:05.732Z,44.14
2023-09-19T16:59:37.258Z,44.50
2023-09-19T17:02:09.193Z,44.73
2023-09-19T17:04:40.788Z,44.50
2023-09-19T17:07:12.641Z,44.50
2023-09-19T17:09:44.144Z,44.68
2023-09-19T17:12:15.923Z,45.30
2023-09-19T17:14:47.419Z,45.34
2023-09-19T17:17:18.938Z,45.97
2023-09-19T17:19:50.509Z,45.75
2023-09-19T17:22:22.126Z,46.18
2023-09-19T17:24:53.712Z,46.61
2023-09-19T17:27:25.213Z,47.63
2023-09-19T17:32:38.333Z,48.18
2023-09-19T17:35:10.111Z,47.89
2023-09-19T17:37:41.741Z,48.71
2023-09-19T17:40:13.592Z,48.88
2023-09-19T17:42:45.174Z,50.44
2023-09-19T17:45:16.754Z,50.06
2023-09-19T17:47:48.345Z,50.71
2023-09-19T17:50:19.919Z,50.61
2023-09-19T17:52:51.524Z,51.35
2023-09-19T17:55:23.039Z,51.88
2023-09-19T17:57:56.793Z,52.14
2023-09-19T18:00:29.483Z,51.96
2023-09-19T18:03:01.523Z,51.41
2023-09-19T18:05:33.204Z,51.13
2023-09-19T18:08:05.138Z,51.81
2023-09-19T18:10:36.811Z,51.67
2023-09-19T18:13:08.333Z,51.41
2023-09-19T18:15:39.858Z,51.82
2023-09-19T18:18:11.480Z,52.55
2023-09-19T18:20:43.382Z,51.68
2023-09-19T18:23:14.953Z,51.88
2023-09-19T18:25:46.501Z,52.09
2023-09-19T18:28:18.025Z,52.25
2023-09-19T18:30:49.571Z,51.86
2023-09-19T18:33:21.082Z,51.90
2023-09-19T18:35:52.600Z,51.89
2023-09-19T18:38:24.150Z,52.05
2023-09-19T18:40:58.186Z,52.34
2023-09-19T18:43:31.177Z,52.45
2023-09-19T18:46:02.777Z,52.75
2023-09-19T18:48:34.640Z,52.78
2023-09-19T18:51:06.177Z,52.55
2023-09-19T18:53:38.135Z,51.88
2023-09-19T18:56:09.682Z,51.87
2023-09-19T18:58:41.566Z,51.48
2023-09-19T19:01:13.295Z,51.34
2023-09-19T19:03:44.915Z,51.31
2023-09-19T19:06:16.476Z,51.08
2023-09-19T19:08:48.009Z,50.75
2023-09-19T19:11:19.572Z,51.29
2023-09-19T19:13:51.141Z,50.96
2023-09-19T19:16:22.670Z,50.96
2023-09-19T19:18:54.590Z,51.57
2023-09-19T19:21:26.521Z,51.11
2023-09-19T19:23:58.061Z,51.24
2023-09-19T19:26:29.949Z,51.11
2023-09-19T19:29:01.457Z,51.08
2023-09-19T19:31:33.350Z,51.71
2023-09-19T19:34:06.413Z,51.25
2023-09-19T19:36:39.643Z,51.15
2023-09-19T19:39:11.173Z,51.01
2023-09-19T19:41:43.070Z,51.40
2023-09-19T19:44:14.702Z,51.35
2023-09-19T19:46:46.316Z,51.28
2023-09-19T19:49:17.847Z,51.31
2023-09-19T19:51:49.356Z,51.47
2023-09-19T19:54:20.880Z,51.29
2023-09-19T19:56:52.611Z,51.36
2023-09-19T19:59:24.230Z,52.00
2023-09-19T20:01:55.837Z,51.80
2023-09-19T20:04:27.380Z,51.80
2023-09-19T20:06:58.911Z,51.40
2023-09-19T20:09:30.417Z,52.04
2023-09-19T20:12:02.297Z,51.74
2023-09-19T20:14:33.814Z,52.26
2023-09-19T20:17:06.106Z,52.42
2023-09-19T20:19:37.867Z,52.52
2023-09-19T20:22:09.378Z,52.57
2023-09-19T20:24:40.941Z,52.83
2023-09-19T20:27:12.454Z,52.67
2023-09-19T20:29:44.200Z,52.79
2023-09-19T20:32:15.874Z,52.64
2023-09-19T20:34:47.483Z,52.62
2023-09-19T20:37:19.054Z,53.11
2023-09-19T20:39:50.574Z,53.07
2023-09-19T20:42:22.101Z,53.18
2023-09-19T20:44:53.932Z,53.27
2023-09-19T20:47:26.149Z,53.50
2023-09-19T20:49:57.907Z,53.63
2023-09-19T20:52:29.476Z,53.93
2023-09-19T20:55:00.984Z,54.26
2023-09-19T20:57:32.861Z,54.56
2023-09-19T21:00:04.366Z,54.55
2023-09-19T21:02:36.311Z,54.18
2023-09-19T21:05:07.904Z,54.03
2023-09-19T21:07:39.796Z,53.98
2023-09-19T21:10:12.323Z,54.18
2023-09-19T21:12:44.246Z,54.39
2023-09-19T21:15:16.229Z,54.48
2023-09-19T21:17:47.829Z,55.06
2023-09-19T21:20:19.732Z,55.24
2023-09-19T21:22:51.362Z,55.24
2023-09-19T21:25:23.233Z,55.56
2023-09-19T21:27:54.746Z,55.78
2023-09-19T21:30:26.607Z,56.12
2023-09-19T21:32:58.119Z,56.08
2023-09-19T21:35:30.010Z,56.41
2023-09-19T21:38:01.575Z,55.95
2023-09-19T21:40:33.433Z,56.53
2023-09-19T21:43:05.157Z,55.96
2023-09-19T21:45:36.688Z,55.47
2023-09-19T21:48:08.582Z,55.45
2023-09-19T21:50:40.126Z,55.01
2023-09-19T21:53:11.977Z,54.98
2023-09-19T21:55:43.543Z,55.33
2023-09-19T21:58:15.402Z,55.33
2023-09-19T22:00:46.959Z,55.53
2023-09-19T22:03:18.966Z,55.63
2023-09-19T22:05:50.537Z,55.46
2023-09-19T22:08:22.436Z,55.54
2023-09-19T22:10:54.373Z,55.90
2023-09-19T22:13:26.255Z,56.42
2023-09-19T22:15:58.094Z,56.30
2023-09-19T22:18:29.619Z,56.85
2023-09-19T22:21:01.477Z,56.87
2023-09-19T22:23:32.976Z,57.79
2023-09-19T22:26:04.585Z,57.73
2023-09-19T22:28:36.205Z,58.30
2023-09-19T22:31:08.209Z,58.31
2023-09-19T22:33:39.752Z,58.71
2023-09-19T22:36:11.690Z,58.71
2023-09-19T22:38:43.529Z,58.47
2023-09-19T22:41:15.567Z,58.65
2023-09-19T22:43:47.121Z,59.09
2023-09-19T22:46:18.735Z,58.76
2023-09-19T22:48:50.290Z,58.88
2023-09-19T22:51:21.785Z,58.86
2023-09-19T22:53:53.629Z,58.87
2023-09-19T22:56:25.159Z,58.59
2023-09-19T22:58:57.104Z,58.91
2023-09-19T23:01:28.800Z,59.04
2023-09-19T23:04:00.832Z,59.04
2023-09-19T23:06:32.782Z,58.78
2023-09-19T23:09:04.635Z,58.62
2023-09-19T23:11:36.417Z,58.76
2023-09-19T23:14:08.039Z,58.83
2023-09-19T23:16:39.905Z,58.29
2023-09-19T23:19:11.471Z,59.39
2023-09-19T23:21:43.423Z,58.92
2023-09-19T23:24:14.933Z,59.28
2023-09-19T23:26:46.460Z,59.89
2023-09-19T23:29:17.996Z,60.20
2023-09-19T23:31:49.613Z,60.29
2023-09-19T23:34:21.261Z,60.51
2023-09-19T23:36:52.850Z,60.68
2023-09-19T23:39:24.750Z,61.06
2023-09-19T23:41:56.271Z,61.03
2023-09-19T23:44:28.012Z,61.46
2023-09-19T23:46:59.555Z,61.80
2023-09-19T23:49:31.468Z,61.92
2023-09-19T23:52:02.973Z,61.67
2023-09-19T23:54:34.801Z,62.26
2023-09-19T23:57:06.313Z,62.29
2023-09-19T23:59:38.035Z,62.74
